Time;durP1;ratioP1;P1;durP2;ratioP2;P2;SDS_P1;SDS_P2;PMS_P1;PMS_P2;Temp;Humidity;BMP_temperature;BMP_pressure;BME280_temperature;BME280_humidity;BME280_pressure;Samples;Min_cycle;Max_cycle;Signal;HPM_P1;HPM_P2
2022/03/23 00:00:08;;;;;;;6.63;5.93;;;;;;;8.23;42.34;100061.09;6952553;28;20296;-85
2022/03/23 00:03:31;;;;;;;7.90;6.47;;;;;;;8.67;40.82;100057.28;6952540;28;20242;-84
2022/03/23 00:06:53;;;;;;;8.70;6.70;;;;;;;8.65;40.61;100051.22;6951244;28;20276;-85
2022/03/23 00:10:15;;;;;;;8.90;6.90;;;;;;;8.41;41.28;100059.19;6953910;28;20210;-85
2022/03/23 00:13:36;;;;;;;7.43;6.23;;;;;;;8.62;40.56;100060.47;6952888;28;20623;-84
2022/03/23 00:16:58;;;;;;;9.07;6.40;;;;;;;8.19;41.14;100063.22;6951561;28;20242;-84
2022/03/23 00:20:21;;;;;;;7.20;5.67;;;;;;;8.38;41.18;100057.66;6952680;28;20294;-85
2022/03/23 00:23:42;;;;;;;6.30;5.70;;;;;;;8.63;40.85;100051.41;6953365;28;20211;-85
2022/03/23 00:27:04;;;;;;;8.17;6.93;;;;;;;8.54;40.43;100022.78;6953949;28;20333;-85
2022/03/23 00:30:26;;;;;;;7.23;6.03;;;;;;;8.55;41.04;100050.53;6956747;28;20203;-85
2022/03/23 00:33:48;;;;;;;9.97;5.70;;;;;;;8.13;41.19;100025.44;6965311;28;20222;-84
2022/03/23 00:37:11;;;;;;;7.80;5.93;;;;;;;8.00;42.26;100051.88;6956327;28;20229;-85
2022/03/23 00:40:33;;;;;;;8.97;6.87;;;;;;;7.83;42.85;100042.06;6954286;28;20251;-85
2022/03/23 00:43:54;;;;;;;8.23;6.40;;;;;;;7.82;42.62;100033.13;6955175;28;20207;-85
2022/03/23 00:47:16;;;;;;;9.53;6.83;;;;;;;7.78;42.45;100055.09;6955377;28;20238;-85
2022/03/23 00:50:38;;;;;;;6.93;6.23;;;;;;;7.64;42.68;100032.34;6956701;28;20281;-85
2022/03/23 00:54:00;;;;;;;7.63;6.83;;;;;;;7.60;42.92;100048.91;6955090;28;20217;-85
2022/03/23 00:57:22;;;;;;;8.30;6.93;;;;;;;7.81;42.64;100039.50;6952859;28;20254;-86
2022/03/23 01:00:45;;;;;;;9.27;6.57;;;;;;;7.75;42.31;100050.03;6953331;28;20313;-84
2022/03/23 01:04:07;;;;;;;10.23;7.30;;;;;;;7.58;42.62;100048.22;6952566;28;20207;-85
2022/03/23 01:07:28;;;;;;;13.37;8.27;;;;;;;7.65;42.53;100033.16;6951873;28;20270;-84
2022/03/23 01:10:51;;;;;;;9.10;7.50;;;;;;;7.89;41.95;100050.28;6951805;28;20208;-84
2022/03/23 01:14:13;;;;;;;7.70;6.90;;;;;;;7.87;41.98;100051.44;6951380;28;20214;-84
2022/03/23 01:17:34;;;;;;;9.07;6.50;;;;;;;7.84;42.05;100023.06;6950164;28;20219;-85
2022/03/23 01:20:56;;;;;;;8.40;6.97;;;;;;;7.68;41.89;100041.78;6950375;28;20233;-84
2022/03/23 01:24:17;;;;;;;8.40;6.67;;;;;;;7.43;43.32;100045.25;6950937;28;20211;-84
2022/03/23 01:27:42;;;;;;;7.40;6.60;;;;;;;7.69;42.69;100054.19;6950976;28;20242;-84
2022/03/23 01:31:05;;;;;;;10.57;6.80;;;;;;;7.72;42.79;100043.13;6953258;28;20210;-84
2022/03/23 01:34:26;;;;;;;8.73;6.67;;;;;;;7.38;43.45;100038.69;6955813;28;20217;-85
2022/03/23 01:37:48;;;;;;;9.20;7.10;;;;;;;7.42;43.39;100043.56;6955062;28;20249;-85
2022/03/23 01:41:11;;;;;;;8.83;7.03;;;;;;;7.33;43.52;100028.41;6954768;28;20734;-85
2022/03/23 01:44:34;;;;;;;9.07;7.33;;;;;;;7.50;43.36;100038.28;6954123;28;20320;-84
2022/03/23 01:47:55;;;;;;;12.03;7.93;;;;;;;7.72;43.30;100048.50;6954838;28;20282;-84
2022/03/23 01:51:18;;;;;;;9.27;7.57;;;;;;;7.56;42.38;100034.97;6954536;28;20207;-85
2022/03/23 01:54:41;;;;;;;8.73;6.40;;;;;;;7.69;42.67;100035.41;6953982;28;20238;-85
2022/03/23 01:58:02;;;;;;;8.73;7.10;;;;;;;7.35;43.23;100026.41;6952794;28;20219;-86
2022/03/23 02:01:25;;;;;;;8.50;6.20;;;;;;;6.70;44.68;100040.19;6952474;28;20231;-84
2022/03/23 02:04:47;;;;;;;7.93;6.67;;;;;;;6.77;45.32;100035.91;6952983;28;20218;-84
2022/03/23 02:08:09;;;;;;;9.47;6.93;;;;;;;6.26;45.04;99982.06;6953038;28;20727;-84
2022/03/23 02:11:33;;;;;;;10.00;7.30;;;;;;;6.68;45.09;100036.81;6953279;28;20763;-85
2022/03/23 02:14:54;;;;;;;8.73;7.00;;;;;;;6.84;44.54;100020.91;6953434;28;20203;-85
2022/03/23 02:18:17;;;;;;;8.63;6.53;;;;;;;7.44;43.44;100056.84;6952975;28;20231;-85
2022/03/23 02:21:44;;;;;;;9.20;8.03;;;;;;;7.02;44.23;100053.09;6952591;28;20238;-85
2022/03/23 02:25:07;;;;;;;9.60;6.77;;;;;;;6.51;44.65;100005.47;6952500;28;20662;-85
2022/03/23 02:28:29;;;;;;;7.37;6.67;;;;;;;6.80;44.55;100032.94;6952302;28;20346;-84
2022/03/23 02:31:51;;;;;;;10.60;7.40;;;;;;;7.01;44.33;100038.81;6952463;28;20207;-84
2022/03/23 02:35:14;;;;;;;10.27;7.37;;;;;;;6.96;44.95;100049.16;6941931;28;20214;-84
2022/03/23 02:38:37;;;;;;;7.63;6.83;;;;;;;6.84;44.19;100039.66;6950939;28;20223;-85
2022/03/23 02:41:59;;;;;;;8.23;7.27;;;;;;;6.94;43.67;100007.41;6951277;28;20707;-85
2022/03/23 02:45:21;;;;;;;9.27;7.00;;;;;;;7.07;44.20;100051.63;6956978;28;20199;-85
2022/03/23 02:48:43;;;;;;;9.73;7.50;;;;;;;6.55;45.25;100060.44;6956351;28;20233;-85
2022/03/23 02:52:05;;;;;;;9.97;7.20;;;;;;;6.62;45.06;100052.66;6955731;28;20214;-84
2022/03/23 03:03:38;;;;;;;10.20;8.27;;;;;;;6.82;44.63;100046.16;6925997;28;20227;-85
2022/03/23 03:07:00;;;;;;;10.37;7.70;;;;;;;6.78;44.64;100056.34;6934091;28;20253;-85
2022/03/23 03:10:23;;;;;;;8.87;7.93;;;;;;;6.65;45.00;100061.22;6956367;28;20273;-84
2022/03/23 03:13:49;;;;;;;9.60;7.97;;;;;;;6.20;46.14;100076.38;6956621;28;20290;-85
2022/03/23 03:17:12;;;;;;;9.13;7.60;;;;;;;6.18;45.62;100037.38;6955886;28;20227;-86
2022/03/23 03:20:34;;;;;;;9.30;7.70;;;;;;;5.93;45.41;99979.13;6957568;28;20199;-85
2022/03/23 03:23:56;;;;;;;14.53;8.20;;;;;;;6.76;44.80;100069.06;6956610;28;20595;-84
2022/03/23 03:27:27;;;;;;;9.13;8.10;;;;;;;6.60;45.51;100078.75;6955975;28;20235;-85
2022/03/23 03:39:35;;;;;;;11.13;7.87;;;;;;;6.73;45.02;100072.03;6956514;28;20210;-85
2022/03/23 03:42:58;;;;;;;9.73;8.40;;;;;;;6.61;45.47;100070.53;6956463;28;20237;-85
2022/03/23 03:46:20;;;;;;;9.60;7.97;;;;;;;6.65;44.99;100052.31;6956566;28;20215;-84
2022/03/23 03:49:42;;;;;;;10.97;7.83;;;;;;;6.77;45.14;100078.78;6956784;28;20227;-85
2022/03/23 03:53:04;;;;;;;10.03;8.43;;;;;;;6.25;44.85;100022.41;6956433;28;20321;-85
2022/03/23 03:56:27;;;;;;;12.07;8.87;;;;;;;6.40;45.44;100091.41;6947819;28;20209;-87
2022/03/23 03:59:49;;;;;;;14.27;9.23;;;;;;;6.19;45.22;100005.06;6947523;28;20215;-87
2022/03/23 04:03:18;;;;;;;12.60;8.97;;;;;;;6.75;44.65;100075.41;6959314;28;20573;-84
2022/03/23 04:06:39;;;;;;;13.27;9.13;;;;;;;6.58;45.31;100086.09;6961807;28;20694;-85
2022/03/23 04:10:01;;;;;;;13.03;9.93;;;;;;;6.48;45.59;100079.94;6961705;28;20214;-85
2022/03/23 04:13:24;;;;;;;17.13;9.93;;;;;;;6.96;44.90;100085.88;6960930;28;20650;-86
2022/03/23 04:16:46;;;;;;;12.80;9.43;;;;;;;6.89;44.53;100074.91;6956455;28;20214;-87
2022/03/23 04:20:08;;;;;;;16.80;11.40;;;;;;;6.68;45.68;100068.13;6953784;28;20512;-86
2022/03/23 04:33:10;;;;;;;13.13;10.50;;;;;;;7.38;43.78;100082.44;6936993;28;20214;-86
2022/03/23 04:36:46;;;;;;;14.37;10.77;;;;;;;7.25;43.96;100086.50;6947108;28;20236;-85
2022/03/23 04:40:09;;;;;;;13.97;11.20;;;;;;;7.32;44.00;100087.59;6959414;28;20218;-84
2022/03/23 04:43:31;;;;;;;13.10;10.83;;;;;;;6.96;44.12;100037.63;6953129;28;20230;-85
2022/03/23 04:47:17;;;;;;;16.63;11.57;;;;;;;7.07;44.07;100040.06;6951383;28;20615;-85
2022/03/23 04:55:05;;;;;;;16.17;11.97;;;;;;;7.06;45.31;100094.69;6948747;28;20280;-85
2022/03/23 05:03:27;;;;;;;;;;;;;;;;;;;;;
2022/03/23 05:10:40;;;;;;;19.77;11.60;;;;;;;6.64;45.91;100112.28;7077519;27;20909;-70
2022/03/23 05:14:01;;;;;;;14.40;11.30;;;;;;;6.59;46.15;100106.53;7086415;27;20206;-71
2022/03/23 05:17:23;;;;;;;15.37;11.27;;;;;;;6.33;46.88;100116.22;7105784;27;20202;-71
2022/03/23 05:20:45;;;;;;;13.60;10.50;;;;;;;6.30;46.78;100113.88;7107361;27;20682;-71
2022/03/23 05:24:07;;;;;;;17.27;10.93;;;;;;;6.31;47.20;100121.72;7107042;27;20203;-72
2022/03/23 05:27:33;;;;;;;14.47;11.87;;;;;;;6.21;47.38;100112.03;7094855;27;20208;-71
2022/03/23 05:30:54;;;;;;;13.33;10.23;;;;;;;6.37;46.93;100107.75;7078691;28;20552;-71
2022/03/23 05:34:16;;;;;;;14.27;10.50;;;;;;;6.30;47.41;100109.34;7078151;27;20239;-71
2022/03/23 05:37:38;;;;;;;14.83;10.77;;;;;;;6.25;47.27;100095.53;7077771;27;20256;-71
2022/03/23 05:40:59;;;;;;;15.00;11.03;;;;;;;6.31;47.32;100116.38;7079766;27;20208;-71
2022/03/23 05:44:22;;;;;;;15.93;11.80;;;;;;;6.16;47.05;100099.09;7106523;27;20206;-71
2022/03/23 05:47:45;;;;;;;18.93;12.47;;;;;;;6.52;46.98;100125.03;7106086;27;20214;-71
2022/03/23 05:51:08;;;;;;;18.03;12.73;;;;;;;6.26;47.57;100120.50;7106249;27;20210;-71
2022/03/23 05:54:29;;;;;;;18.80;12.50;;;;;;;6.36;47.13;100126.66;7106401;27;20220;-71
2022/03/23 05:57:51;;;;;;;22.40;15.57;;;;;;;6.42;46.75;100118.88;7102384;27;20528;-71
2022/03/23 06:01:14;;;;;;;27.97;19.80;;;;;;;6.51;47.18;100133.22;7101180;27;20230;-71
2022/03/23 06:04:35;;;;;;;32.03;22.63;;;;;;;6.48;47.24;100144.25;7077353;27;20215;-70
2022/03/23 06:07:57;;;;;;;24.07;16.67;;;;;;;6.85;46.00;100145.06;7076214;27;20258;-71
2022/03/23 06:11:19;;;;;;;22.63;14.27;;;;;;;6.85;46.60;100147.75;7048996;28;20232;-72
2022/03/23 06:14:42;;;;;;;18.40;13.47;;;;;;;6.01;47.08;100020.22;7038161;28;20301;-72
2022/03/23 06:18:05;;;;;;;19.83;13.20;;;;;;;6.66;47.72;100140.63;7031195;28;20209;-71
2022/03/23 06:21:26;;;;;;;18.20;13.30;;;;;;;6.99;47.11;100147.22;7024002;28;20196;-72
2022/03/23 06:24:48;;;;;;;19.73;14.30;;;;;;;7.21;47.44;100144.13;7014462;28;20206;-72
2022/03/23 06:28:10;;;;;;;20.27;15.00;;;;;;;7.75;45.70;100144.84;7001452;28;20221;-74
2022/03/23 06:31:31;;;;;;;21.27;15.57;;;;;;;7.92;45.30;100137.75;7001868;28;20246;-75
2022/03/23 06:34:54;;;;;;;21.53;13.93;;;;;;;8.20;44.90;100140.16;7014869;28;20205;-74
2022/03/23 06:38:17;;;;;;;20.57;13.90;;;;;;;8.35;42.62;100043.69;7029368;28;20208;-74
2022/03/23 06:41:38;;;;;;;21.80;14.30;;;;;;;8.84;43.48;100137.84;7044506;28;20205;-75
2022/03/23 06:45:01;;;;;;;19.70;14.50;;;;;;;9.13;42.49;100124.84;7028868;28;20209;-74
2022/03/23 06:48:23;;;;;;;20.47;15.37;;;;;;;9.22;42.42;100119.31;7021981;28;20217;-74
2022/03/23 06:51:46;;;;;;;19.03;13.57;;;;;;;9.31;42.66;100163.22;7021071;28;20202;-74
2022/03/23 06:55:09;;;;;;;15.70;13.53;;;;;;;9.68;41.77;100134.03;7028798;28;20201;-74
2022/03/23 06:58:31;;;;;;;19.20;14.23;;;;;;;10.00;41.65;100151.06;7028790;28;20239;-74
2022/03/23 07:01:52;;;;;;;18.33;13.80;;;;;;;9.82;40.72;100063.31;7035234;28;20225;-74
2022/03/23 07:05:19;;;;;;;17.93;13.23;;;;;;;10.39;40.49;100130.47;7050164;28;20230;-74
2022/03/23 07:12:21;;;;;;;17.77;12.93;;;;;;;10.21;40.33;100080.50;7000548;28;20202;-74
2022/03/23 07:15:44;;;;;;;21.87;13.50;;;;;;;11.34;39.02;100155.38;7026089;28;20283;-74
2022/03/23 07:19:06;;;;;;;18.37;12.93;;;;;;;10.92;38.57;100028.09;7054370;28;20226;-75
2022/03/23 07:22:27;;;;;;;15.03;12.30;;;;;;;11.86;38.20;100152.91;7056282;28;20211;-74
2022/03/23 07:25:50;;;;;;;14.30;12.17;;;;;;;12.16;37.32;100084.38;7029364;28;20214;-80
2022/03/23 07:29:13;;;;;;;13.70;10.93;;;;;;;12.46;35.11;100083.38;7029177;28;20231;-76
2022/03/23 07:32:35;;;;;;;15.03;12.57;;;;;;;13.46;35.34;100153.88;7027057;28;20689;-75
2022/03/23 07:35:57;;;;;;;15.73;12.20;;;;;;;13.79;33.56;100071.03;7028917;28;20226;-73
2022/03/23 07:39:21;;;;;;;17.20;12.30;;;;;;;14.84;32.80;100154.94;7028106;28;20214;-74
2022/03/23 07:42:44;;;;;;;16.03;12.07;;;;;;;14.66;33.20;100081.31;7027784;28;20209;-74
2022/03/23 07:46:05;;;;;;;14.40;11.33;;;;;;;14.64;32.40;100070.66;7027675;28;20221;-75
2022/03/23 07:49:27;;;;;;;14.07;11.10;;;;;;;14.73;32.50;100145.47;7027321;28;20224;-74
2022/03/23 07:52:50;;;;;;;15.60;11.07;;;;;;;14.76;32.07;100035.66;7027824;28;20200;-74
2022/03/23 07:56:12;;;;;;;12.27;10.63;;;;;;;15.03;31.58;100068.13;7027151;28;20204;-74
2022/03/23 07:59:35;;;;;;;14.23;11.77;;;;;;;15.22;32.07;100085.56;7027413;28;20694;-75
2022/03/23 08:02:56;;;;;;;15.40;12.13;;;;;;;15.68;32.04;100159.97;7027281;28;20232;-74
2022/03/23 08:06:18;;;;;;;14.10;11.57;;;;;;;15.45;31.53;100081.47;7027225;28;20205;-74
2022/03/23 08:09:40;;;;;;;16.10;11.50;;;;;;;15.64;31.52;100102.41;7027051;28;20616;-73
2022/03/23 08:13:01;;;;;;;14.57;12.13;;;;;;;15.94;29.91;100075.69;7026984;28;20546;-74
2022/03/23 08:16:25;;;;;;;12.60;10.87;;;;;;;16.27;30.32;100076.53;7027215;28;20200;-74
2022/03/23 08:20:32;;;;;;;15.07;11.70;;;;;;;16.58;29.82;100069.38;7026541;28;20268;-76
2022/03/23 08:23:30;;;;;;;15.87;11.50;;;;;;;17.02;29.48;100088.53;7020261;28;20288;-76
2022/03/23 08:26:51;;;;;;;13.17;10.77;;;;;;;17.54;29.47;100098.38;6998530;28;20255;-75
2022/03/23 08:30:13;;;;;;;14.50;11.90;;;;;;;18.24;28.27;100164.47;7029849;28;20340;-73
2022/03/23 08:33:37;;;;;;;15.40;12.03;;;;;;;17.79;28.90;100157.41;7054555;28;20647;-75
2022/03/23 08:36:59;;;;;;;13.50;11.73;;;;;;;17.32;29.46;100155.09;7053522;28;20208;-73
2022/03/23 08:40:21;;;;;;;14.50;11.17;;;;;;;17.60;28.77;100158.38;7054239;28;20260;-73
2022/03/23 08:43:43;;;;;;;14.80;12.20;;;;;;;17.36;29.33;100128.22;7053231;28;20204;-74
2022/03/23 08:47:05;;;;;;;15.80;11.90;;;;;;;17.09;29.10;100089.34;7053847;28;20211;-74
2022/03/23 08:50:28;;;;;;;15.53;12.47;;;;;;;17.89;27.61;100042.34;7054051;28;20231;-74
2022/03/23 08:53:49;;;;;;;16.33;11.77;;;;;;;18.05;27.12;100153.69;7054138;28;20661;-74
2022/03/23 08:57:11;;;;;;;14.73;11.77;;;;;;;18.03;28.19;100159.38;7052465;28;20207;-74
2022/03/23 09:00:33;;;;;;;15.73;11.80;;;;;;;18.89;26.80;100144.81;7054180;28;20223;-74
2022/03/23 09:04:00;;;;;;;16.23;11.83;;;;;;;17.85;27.78;100133.88;7054031;28;20256;-74
2022/03/23 09:07:23;;;;;;;15.17;12.30;;;;;;;18.00;28.07;100139.88;7025890;28;20212;-74
2022/03/23 09:10:45;;;;;;;15.57;12.67;;;;;;;18.45;27.73;100116.88;7025702;28;20235;-74
2022/03/23 09:14:07;;;;;;;13.33;11.73;;;;;;;18.24;26.87;100084.44;7026201;28;20616;-75
2022/03/23 09:17:28;;;;;;;15.67;11.83;;;;;;;18.19;27.13;100073.38;7025499;28;20217;-73
2022/03/23 09:20:50;;;;;;;17.57;11.97;;;;;;;18.79;26.49;100129.97;7026231;28;20648;-74
2022/03/23 09:24:13;;;;;;;18.40;11.83;;;;;;;18.88;27.02;100061.09;7032046;28;20201;-75
2022/03/23 09:27:37;;;;;;;15.53;12.33;;;;;;;19.29;26.72;100074.94;7053437;28;20708;-75
2022/03/23 09:30:59;;;;;;;14.13;12.13;;;;;;;19.90;25.73;100129.44;7053255;28;20225;-74
2022/03/23 09:34:21;;;;;;;16.43;12.37;;;;;;;20.34;26.15;100146.25;7047235;28;20227;-76
2022/03/23 09:37:49;;;;;;;17.67;14.23;;;;;;;19.96;26.48;100125.78;7051956;28;20213;-75
2022/03/23 09:41:12;;;;;;;15.57;11.97;;;;;;;19.34;25.97;100047.72;7034387;28;20198;-73
2022/03/23 09:44:35;;;;;;;16.10;12.07;;;;;;;19.28;25.82;100069.72;7011290;28;20667;-75
2022/03/23 09:47:56;;;;;;;17.23;12.13;;;;;;;19.51;24.49;100061.63;7009492;28;20652;-73
2022/03/23 09:51:18;;;;;;;18.60;12.30;;;;;;;20.00;23.30;100140.69;7014995;28;20225;-74
2022/03/23 09:54:41;;;;;;;19.93;12.90;;;;;;;20.29;23.84;100109.69;7016081;28;20553;-74
2022/03/23 09:58:06;;;;;;;21.20;13.63;;;;;;;20.54;23.57;100129.50;7033278;28;20225;-74
2022/03/23 10:02:12;;;;;;;25.67;22.93;;;;;;;20.51;24.10;100128.06;7038791;28;20242;-74
2022/03/23 10:06:11;;;;;;;13.50;12.10;;;;;;;21.12;23.11;100112.00;7029850;28;20212;-74
2022/03/23 10:10:06;;;;;;;14.70;12.30;;;;;;;21.19;22.88;100107.19;7029732;28;20235;-74
2022/03/23 10:14:04;;;;;;;13.73;12.33;;;;;;;21.13;23.18;100104.59;7029972;28;20231;-74
2022/03/23 10:18:01;;;;;;;14.03;11.63;;;;;;;20.65;22.72;100113.06;7029865;28;20211;-74
2022/03/23 10:21:24;;;;;;;14.57;12.47;;;;;;;19.71;22.89;100053.94;7029693;28;20215;-74
2022/03/23 10:24:46;;;;;;;15.50;12.07;;;;;;;20.46;23.61;100103.28;7013493;28;20543;-74
2022/03/23 10:28:13;;;;;;;13.27;11.87;;;;;;;21.34;22.16;100072.69;7001541;28;20588;-73
2022/03/23 10:31:35;;;;;;;14.20;11.73;;;;;;;22.39;21.03;100085.63;7021030;28;20224;-73
2022/03/23 10:34:58;;;;;;;13.73;11.17;;;;;;;23.17;19.18;100090.94;7010924;28;20243;-74
2022/03/23 10:38:22;;;;;;;15.13;12.90;;;;;;;22.44;20.38;100082.16;7013673;28;20259;-74
2022/03/23 10:41:45;;;;;;;13.27;11.93;;;;;;;22.24;21.08;100079.06;7020019;28;20252;-80
2022/03/23 10:45:09;;;;;;;14.07;11.63;;;;;;;22.13;20.56;100058.81;7029744;28;20212;-72
2022/03/23 10:48:31;;;;;;;16.00;12.07;;;;;;;22.30;20.41;100078.88;7029384;28;20231;-78
2022/03/23 10:51:56;;;;;;;16.17;12.97;;;;;;;22.72;20.70;100054.56;7026380;28;20240;-77
2022/03/23 10:55:19;;;;;;;15.97;12.40;;;;;;;22.76;20.26;100067.53;7019866;28;20210;-77
2022/03/23 10:58:40;;;;;;;16.80;12.53;;;;;;;23.29;19.36;100069.63;7015069;28;20197;-77
2022/03/23 11:02:04;;;;;;;14.17;11.93;;;;;;;23.24;19.83;100081.41;7019716;28;20657;-77
2022/03/23 11:05:33;;;;;;;13.50;11.40;;;;;;;21.48;20.17;100049.34;7029128;28;20208;-77
2022/03/23 11:15:45;;;;;;;12.23;11.03;;;;;;;21.79;20.15;99985.72;7031084;28;20219;-77
2022/03/23 11:16:22;;;;;;;13.23;11.50;;;;;;;21.07;20.77;99958.28;7028706;28;20244;-77
2022/03/23 11:19:43;;;;;;;12.87;11.57;;;;;;;21.34;19.67;99907.19;7022299;28;20190;-77
2022/03/23 11:23:16;;;;;;;13.13;10.83;;;;;;;21.84;20.21;99984.97;7030006;28;20226;-78
2022/03/23 11:26:39;;;;;;;13.90;11.97;;;;;;;22.17;19.61;100029.75;7028336;28;20208;-78
2022/03/23 11:30:01;;;;;;;13.50;11.87;;;;;;;22.10;19.95;100026.34;7028405;28;20355;-78
2022/03/23 11:33:25;;;;;;;12.33;11.03;;;;;;;22.45;20.08;99954.63;7028958;28;20218;-78
2022/03/23 11:36:48;;;;;;;14.70;10.90;;;;;;;22.66;19.11;99959.31;7047337;28;20268;-78
2022/03/23 11:40:13;;;;;;;13.93;11.90;;;;;;;23.63;19.09;99985.78;7057024;28;20287;-78
2022/03/23 11:43:37;;;;;;;12.60;11.07;;;;;;;24.56;18.63;100027.34;7056282;28;20211;-78
2022/03/23 11:47:02;;;;;;;14.77;11.73;;;;;;;24.66;19.07;99991.59;7028789;28;20558;-78
2022/03/23 11:50:26;;;;;;;15.77;11.77;;;;;;;24.76;18.08;100011.78;7028329;28;20247;-78
2022/03/23 11:53:55;;;;;;;12.17;10.73;;;;;;;25.30;18.44;100004.88;7027703;28;20209;-77
2022/03/23 11:57:16;;;;;;;12.57;11.27;;;;;;;25.75;17.12;99995.84;7034459;28;20586;-75
2022/03/23 12:00:41;;;;;;;13.17;11.67;;;;;;;24.59;17.58;100002.84;7012674;28;20593;-75
2022/03/23 12:04:04;;;;;;;12.37;10.40;;;;;;;23.63;17.07;99996.78;7016330;28;20274;-76
2022/03/23 12:07:48;;;;;;;12.47;11.17;;;;;;;23.93;16.96;99997.09;7017958;28;20560;-74
2022/03/23 12:11:31;;;;;;;12.10;10.90;;;;;;;24.36;16.21;99986.69;7028047;28;20314;-75
2022/03/23 12:14:53;;;;;;;12.70;11.40;;;;;;;23.80;18.57;99968.03;7027257;28;20216;-75
2022/03/23 12:18:16;;;;;;;14.70;12.87;;;;;;;24.02;19.12;99960.53;7025862;28;20211;-75
2022/03/23 12:21:56;;;;;;;15.60;11.67;;;;;;;24.39;18.33;99949.47;7027940;28;20201;-75
2022/03/23 12:25:23;;;;;;;13.53;12.00;;;;;;;23.64;18.53;99959.88;7026741;28;20245;-75
2022/03/23 12:28:46;;;;;;;13.70;12.07;;;;;;;23.79;18.94;99963.59;7026218;28;20208;-75
2022/03/23 12:32:10;;;;;;;16.67;12.23;;;;;;;23.03;18.74;99905.31;7027522;28;20225;-75
2022/03/23 12:35:35;;;;;;;18.73;12.20;;;;;;;24.46;18.51;99934.38;7026439;28;20591;-75
2022/03/23 12:39:00;;;;;;;14.03;12.20;;;;;;;24.55;17.82;99913.44;7026079;28;20211;-75
2022/03/23 12:42:27;;;;;;;13.93;12.40;;;;;;;25.09;17.45;99942.38;7047631;28;20202;-86
2022/03/23 12:45:49;;;;;;;13.27;11.43;;;;;;;23.84;17.05;99834.19;7054004;28;20321;-75
2022/03/23 13:00:28;;;;;;;13.83;11.30;;;;;;;24.39;17.47;99908.97;7049680;28;20190;-74
2022/03/23 13:03:54;;;;;;;12.80;10.23;;;;;;;24.84;16.96;99894.56;7048954;28;20198;-75
2022/03/23 13:07:40;;;;;;;12.03;10.83;;;;;;;25.17;15.76;99872.84;7026344;28;20208;-75
2022/03/23 13:11:04;;;;;;;12.10;10.43;;;;;;;25.43;16.19;99915.97;7031702;28;20220;-75
2022/03/23 13:14:27;;;;;;;11.43;10.07;;;;;;;23.47;16.42;99849.03;7051278;28;20286;-75
2022/03/23 13:17:49;;;;;;;12.27;11.07;;;;;;;23.71;16.74;99763.03;7040352;28;20210;-74
2022/03/23 13:21:12;;;;;;;11.03;9.63;;;;;;;24.65;16.63;99866.63;7053662;28;20253;-76
2022/03/23 13:24:34;;;;;;;11.00;9.93;;;;;;;24.79;16.31;99903.63;7022838;28;20240;-75
2022/03/23 13:27:57;;;;;;;13.47;10.63;;;;;;;25.03;16.04;99898.47;7012860;28;20338;-74
2022/03/23 13:31:24;;;;;;;11.23;10.07;;;;;;;24.84;15.92;99878.00;7014215;28;20662;-74
2022/03/23 13:34:53;;;;;;;12.97;10.20;;;;;;;24.77;16.28;99869.16;7016872;28;20285;-75
2022/03/23 13:38:14;;;;;;;12.00;10.77;;;;;;;24.85;15.76;99821.72;7016722;28;20281;-75
2022/03/23 13:45:16;;;;;;;12.23;10.73;;;;;;;25.23;16.21;99880.03;7031139;28;20205;-74
2022/03/23 13:48:39;;;;;;;12.43;10.73;;;;;;;23.97;16.23;99843.94;7030610;28;20209;-75
2022/03/23 13:52:01;;;;;;;11.37;10.03;;;;;;;25.09;16.69;99878.06;7030319;28;20289;-75
2022/03/23 13:55:25;;;;;;;12.23;9.80;;;;;;;24.47;16.62;99875.34;7030125;28;20219;-74
2022/03/23 13:58:46;;;;;;;15.33;10.13;;;;;;;24.85;16.68;99857.59;7029983;28;20209;-74
2022/03/23 14:02:09;;;;;;;11.87;10.00;;;;;;;23.89;16.93;99849.97;7029248;28;20209;-75
2022/03/23 14:05:32;;;;;;;11.53;10.33;;;;;;;24.45;17.31;99852.75;7029999;28;20246;-75
2022/03/23 14:08:54;;;;;;;11.57;10.00;;;;;;;24.17;16.67;99877.97;7029500;28;20216;-75
2022/03/23 14:12:16;;;;;;;10.30;9.27;;;;;;;24.04;17.08;99833.50;7030013;28;20225;-75
2022/03/23 14:15:50;;;;;;;10.17;9.17;;;;;;;24.17;16.91;99864.19;7029344;28;20214;-74
2022/03/23 14:19:14;;;;;;;11.97;10.70;;;;;;;24.18;16.81;99856.75;7029519;28;20639;-74
2022/03/23 14:22:37;;;;;;;11.37;10.17;;;;;;;24.62;16.86;99858.91;7029434;28;20202;-74
2022/03/23 14:26:29;;;;;;;13.43;10.27;;;;;;;25.18;16.27;99857.13;7020289;28;20793;-75
2022/03/23 14:30:11;;;;;;;11.07;9.97;;;;;;;25.24;15.61;99847.75;7015990;28;20633;-75
2022/03/23 14:33:33;;;;;;;11.93;9.87;;;;;;;24.75;16.46;99836.31;7016049;28;20248;-74
2022/03/23 14:37:07;;;;;;;11.83;9.37;;;;;;;23.80;16.65;99766.97;7020343;28;20207;-74
2022/03/23 14:40:31;;;;;;;9.93;8.70;;;;;;;24.17;16.70;99841.28;7029291;28;20658;-75
2022/03/23 14:43:54;;;;;;;10.97;9.93;;;;;;;23.35;16.86;99736.38;7029481;28;20223;-75
2022/03/23 14:47:15;;;;;;;12.00;9.43;;;;;;;23.51;16.84;99828.16;7029133;28;20208;-74
2022/03/23 14:50:37;;;;;;;10.20;9.20;;;;;;;23.42;17.00;99791.22;7028269;28;20621;-74
2022/03/23 14:54:02;;;;;;;10.27;9.27;;;;;;;23.76;16.84;99781.50;7028461;28;20215;-75
2022/03/23 14:57:24;;;;;;;12.60;9.83;;;;;;;24.31;16.35;99812.97;7028387;28;20209;-74
2022/03/23 15:00:45;;;;;;;11.30;8.87;;;;;;;24.45;16.50;99816.91;7029084;28;20211;-74
2022/03/23 15:04:07;;;;;;;10.43;8.87;;;;;;;24.01;16.22;99809.25;7028769;28;20210;-74
2022/03/23 15:14:48;;;;;;;9.80;8.90;;;;;;;23.76;15.90;99812.66;7016174;28;20196;-74
2022/03/23 15:18:10;;;;;;;9.13;8.10;;;;;;;23.35;16.21;99798.84;7013592;28;20201;-74
2022/03/23 15:21:32;;;;;;;10.87;8.17;;;;;;;23.94;16.19;99812.25;7013641;28;20204;-74
2022/03/23 15:24:53;;;;;;;9.93;7.60;;;;;;;23.68;16.04;99804.91;7026411;28;20241;-74
2022/03/23 15:28:16;;;;;;;11.40;8.33;;;;;;;22.80;15.87;99752.44;7021314;28;20255;-74
2022/03/23 15:31:38;;;;;;;9.23;8.23;;;;;;;23.93;15.87;99791.31;7027080;28;20225;-74
2022/03/23 15:35:00;;;;;;;8.20;7.40;;;;;;;23.70;16.10;99793.59;7026988;28;20334;-74
2022/03/23 15:38:21;;;;;;;8.27;7.00;;;;;;;23.98;15.62;99761.03;7017648;28;20207;-74
2022/03/23 15:41:43;;;;;;;8.50;7.70;;;;;;;24.20;15.85;99802.19;7003138;28;20241;-74
2022/03/23 15:45:08;;;;;;;9.83;7.70;;;;;;;24.13;14.95;99760.25;7020203;28;20201;-74
2022/03/23 15:48:31;;;;;;;8.73;7.83;;;;;;;24.07;15.02;99803.47;7027091;28;20238;-74
2022/03/23 15:51:54;;;;;;;10.27;8.07;;;;;;;23.87;15.42;99785.97;7025572;28;20230;-75
2022/03/23 15:55:17;;;;;;;9.93;7.77;;;;;;;23.92;15.43;99786.88;7014338;28;20202;-74
2022/03/23 15:58:39;;;;;;;9.63;8.00;;;;;;;23.65;14.91;99761.34;7020508;28;20259;-74
2022/03/23 16:02:02;;;;;;;12.13;7.87;;;;;;;24.16;15.22;99771.56;7020845;28;20196;-75
2022/03/23 16:05:24;;;;;;;10.27;7.73;;;;;;;24.08;15.21;99790.53;7020240;28;20283;-74
2022/03/23 16:08:45;;;;;;;9.77;7.30;;;;;;;22.98;15.16;99663.16;7026156;28;20285;-74
2022/03/23 16:12:08;;;;;;;10.00;7.37;;;;;;;23.45;15.52;99785.16;7027250;28;20306;-74
2022/03/23 16:15:30;;;;;;;10.10;7.63;;;;;;;22.87;15.30;99725.53;7026643;28;20216;-74
2022/03/23 16:18:55;;;;;;;8.77;7.20;;;;;;;23.40;15.60;99730.06;7026342;28;20206;-74
2022/03/23 16:22:16;;;;;;;9.90;7.20;;;;;;;23.69;15.50;99790.03;7035741;28;20233;-75
2022/03/23 16:25:38;;;;;;;8.87;7.97;;;;;;;23.45;15.83;99776.91;7034807;28;20197;-75
2022/03/23 16:29:00;;;;;;;8.30;7.50;;;;;;;23.65;15.61;99797.16;7053194;28;20561;-74
2022/03/23 16:32:21;;;;;;;9.40;7.27;;;;;;;23.51;15.82;99756.56;7037301;28;20227;-74
2022/03/23 16:35:45;;;;;;;8.07;6.67;;;;;;;22.80;15.90;99735.94;7026500;28;20215;-74
2022/03/23 16:39:06;;;;;;;7.60;6.87;;;;;;;23.48;15.95;99798.44;7027562;28;20284;-74
2022/03/23 16:42:28;;;;;;;7.90;7.10;;;;;;;23.61;15.72;99800.72;7026280;28;20287;-74
2022/03/23 16:45:50;;;;;;;8.40;7.23;;;;;;;23.30;15.81;99743.78;7026476;28;20210;-74
2022/03/23 16:49:15;;;;;;;8.03;7.23;;;;;;;22.79;16.26;99683.94;7025699;28;20207;-74
2022/03/23 16:52:39;;;;;;;9.80;7.50;;;;;;;23.21;16.24;99804.00;7026118;28;20228;-74